TimeCST,TemperatureF,Dew PointF,Humidity,Sea Level PressureIn,VisibilityMPH,Wind Direction,Wind SpeedMPH,Gust SpeedMPH,PrecipitationIn,Events,Conditions,WindDirDegrees,DateUTC
12:53 AM,28.9,19.9,69,30.36,10.0,North,16.1,-,N/A,,Overcast,350,2014-02-06 06:53:00
1:53 AM,28.9,21.0,72,30.35,10.0,North,9.2,-,N/A,,Overcast,350,2014-02-06 07:53:00
2:53 AM,28.9,19.9,69,30.35,10.0,North,10.4,-,N/A,,Overcast,350,2014-02-06 08:53:00
3:53 AM,28.9,19.9,69,30.34,10.0,North,10.4,-,N/A,,Overcast,360,2014-02-06 09:53:00
4:53 AM,28.9,19.9,69,30.37,10.0,North,11.5,-,N/A,,Overcast,350,2014-02-06 10:53:00
5:53 AM,28.9,21.0,72,30.39,10.0,North,9.2,-,N/A,,Overcast,360,2014-02-06 11:53:00
6:53 AM,28.9,21.0,72,30.40,9.0,North,10.4,-,N/A,,Overcast,360,2014-02-06 12:53:00
7:53 AM,30.0,21.9,72,30.41,7.0,North,9.2,-,N/A,,Overcast,10,2014-02-06 13:53:00
8:53 AM,30.9,21.9,69,30.43,9.0,NNE,13.8,-,N/A,,Overcast,20,2014-02-06 14:53:00
9:53 AM,32.0,23.0,69,30.42,10.0,North,11.5,-,N/A,,Overcast,360,2014-02-06 15:53:00
10:53 AM,32.0,21.9,66,30.43,10.0,North,8.1,-,N/A,,Overcast,10,2014-02-06 16:53:00
11:42 AM,33.8,23.0,65,30.38,10.0,NNE,5.8,-,N/A,,Mostly Cloudy,20,2014-02-06 17:42:00
11:53 AM,34.0,23.0,64,30.40,10.0,North,9.2,-,N/A,,Mostly Cloudy,350,2014-02-06 17:53:00
12:53 PM,34.0,23.0,64,30.31,10.0,North,15.0,-,N/A,,Overcast,350,2014-02-06 18:53:00
1:53 PM,35.1,23.0,61,30.37,10.0,NW,10.4,-,N/A,,Overcast,320,2014-02-06 19:53:00
2:53 PM,34.0,23.0,64,30.37,10.0,NNW,11.5,-,N/A,,Overcast,340,2014-02-06 20:53:00
3:53 PM,34.0,24.1,67,30.38,2.5,NNW,9.2,18.4,0.00,Snow,Light Snow,340,2014-02-06 21:53:00
4:02 PM,33.8,24.8,70,30.36,1.5,North,11.5,-,0.00,Snow,Light Snow,360,2014-02-06 22:02:00
4:37 PM,33.8,24.8,70,30.35,9.0,North,6.9,-,0.00,,Overcast,350,2014-02-06 22:37:00
4:53 PM,33.1,23.0,66,30.37,10.0,NNE,9.2,-,0.00,,Overcast,20,2014-02-06 22:53:00
5:53 PM,32.0,24.1,73,30.39,10.0,North,8.1,-,N/A,,Mostly Cloudy,360,2014-02-06 23:53:00
6:53 PM,30.0,24.1,79,30.40,10.0,NNW,6.9,-,N/A,,Clear,340,2014-02-07 00:53:00
7:53 PM,28.9,23.0,78,30.39,9.0,Calm,Calm,-,N/A,,Clear,0,2014-02-07 01:53:00
8:53 PM,26.1,21.9,84,30.38,8.0,North,3.5,-,N/A,,Clear,360,2014-02-07 02:53:00
9:53 PM,26.1,21.9,84,30.37,7.0,North,4.6,-,N/A,,Clear,350,2014-02-07 03:53:00
10:53 PM,26.1,21.9,84,30.38,7.0,North,5.8,-,N/A,,Clear,350,2014-02-07 04:53:00
11:53 PM,26.1,21.9,84,30.38,6.0,North,5.8,-,N/A,,Clear,360,2014-02-07 05:53:00